Latest Weather Observations for Temora

IDN60801

Issued at 3:03 pm EST Tuesday 27 September 2016 (issued every 30 minutes, with the page automatically refreshed every 10 minutes)

About weather observations | Map of weather stations | Latest weather observations for NSW | Other Formats
Station Details ID: 073151 Name: TEMORA AIRPORT Lat: -34.43 Lon: 147.51 Height: 280.5 m
Data from the previous 72 hours. | See also: Recent months at Temora
Date/Time
EST
Temp
°C
App
Temp
°C
Dew
Point
°C
Rel
Hum
%
Delta-T
°C
Wind Press
QNH
hPa
Press
MSL
hPa
Rain since
9am
mm
Dir  Spd
km/h
Gust
km/h
Spd
kts
Gust
kts
27/03:00pm 12.5 8.0 5.9 64 3.1 SW 19 37 10 20 1013.6 1013.7 0.2
27/02:30pm 13.0 8.3 5.9 62 3.4 SW 20 32 11 17 1013.6 1013.7 0.2
27/02:00pm 12.3 6.6 5.0 61 3.4 SW 24 33 13 18 1013.5 1013.6 0.2
27/01:30pm 13.1 6.9 4.5 56 4.0 WSW 26 35 14 19 1013.6 1013.7 0.2
27/01:00pm 13.1 6.9 4.5 56 4.0 WSW 26 37 14 20 1013.6 1013.7 0.2
27/12:30pm 13.3 7.6 5.0 57 3.9 W 24 33 13 18 1013.7 1013.8 0.0
27/12:00pm 12.5 6.9 5.4 62 3.4 W 24 33 13 18 1013.9 1014.0 0.0
27/11:30am 12.1 7.1 4.8 61 3.4 WSW 20 32 11 17 1014.0 1014.1 0.0
27/11:00am 11.1 5.0 4.6 64 3.0 W 26 35 14 19 1014.2 1014.3 0.0
27/10:30am 11.8 7.2 6.5 70 2.5 WSW 20 28 11 15 1014.4 1014.5 0.0
27/10:00am 11.0 6.4 5.5 69 2.6 W 19 26 10 14 1014.0 1014.1 0.0
27/09:30am 10.6 6.2 6.6 76 1.9 WSW 19 28 10 15 1013.8 1013.9 0.0
27/09:00am 9.9 5.2 5.9 76 1.9 WSW 20 28 11 15 1013.9 1014.0 1.4
27/08:30am 9.9 5.3 6.3 78 1.7 WSW 20 28 11 15 1013.6 1013.7 1.4
27/08:00am 9.6 4.7 7.0 84 1.2 WSW 22 32 12 17 1013.4 1013.5 1.4
27/07:30am 9.3 5.7 6.9 85 1.1 WSW 15 20 8 11 1012.9 1013.0 1.4
27/07:00am 8.4 5.7 7.5 94 0.4 WSW 11 15 6 8 1012.6 1012.6 1.4
27/06:30am 7.3 4.4 6.7 96 0.3 WSW 11 15 6 8 1012.1 1012.1 1.4
27/06:00am 6.7 3.7 6.1 96 0.3 W 11 15 6 8 1011.6 1011.6 1.4
27/05:30am 6.3 4.1 5.4 94 0.4 NNW 6 9 3 5 1011.4 1011.4 1.4
27/05:00am 7.2 6.4 6.6 96 0.3 CALM 0 0 0 0 1011.1 1011.1 1.4
27/04:30am 7.8 5.9 7.4 97 0.2 NE 7 9 4 5 1010.8 1010.9 1.4
27/04:00am 7.6 6.9 7.0 96 0.3 CALM 0 0 0 0 1011.1 1011.1 1.4
27/03:30am 8.0 6.0 7.2 95 0.4 NE 7 11 4 6 1010.8 1010.9 1.0
27/03:00am 8.0 5.6 7.1 94 0.4 ENE 9 11 5 6 1010.9 1011.0 1.0
27/02:30am 7.9 6.2 7.5 97 0.2 NNE 6 7 3 4 1012.0 1012.0 1.0
27/02:00am 7.5 5.6 6.9 96 0.3 S 6 13 3 7 1012.1 1012.1 0.4
27/01:30am 7.2 6.3 6.1 93 0.5 CALM 0 4 0 2 1012.7 1012.7 0.2
27/01:00am 7.6 5.1 6.5 93 0.5 NE 9 11 5 6 1012.3 1012.3 0.0
27/12:30am 4.8 2.1 3.9 94 0.4 NE 7 9 4 5 1012.7 1012.7 0.0
27/12:00am 5.7 3.4 4.8 94 0.4 E 6 7 3 4 1012.8 1012.9 0.0
 
Date/Time
EST
Temp
°C
App
Temp
°C
Dew
Point
°C
Rel
Hum
%
Delta-T
°C
Wind Press
QNH
hPa
Press
MSL
hPa
Rain since
9am
mm
Dir  Spd
km/h
Gust
km/h
Spd
kts
Gust
kts
26/11:30pm 5.5 4.0 5.1 97 0.2 E 2 7 1 4 1013.2 1013.3 0.0
26/11:00pm 5.7 4.7 5.6 99 0.0 CALM 0 0 0 0 1013.6 1013.7 0.0
26/10:30pm 4.6 3.3 3.9 95 0.3 CALM 0 0 0 0 1013.7 1013.8 0.0
26/10:00pm 5.4 4.3 5.0 97 0.2 CALM 0 0 0 0 1013.8 1013.9 0.0
26/09:30pm 6.2 5.2 5.6 96 0.3 CALM 0 0 0 0 1013.9 1014.0 0.0
26/09:00pm 6.3 5.3 5.4 94 0.4 CALM 0 0 0 0 1014.0 1014.1 0.0
26/08:30pm 6.9 5.5 5.4 90 0.7 ENE 2 6 1 3 1013.8 1013.9 0.0
26/08:00pm 7.9 5.7 5.4 84 1.1 ENE 6 7 3 4 1013.8 1013.9 0.0
26/07:30pm 8.9 6.8 5.6 80 1.5 ENE 6 9 3 5 1013.6 1013.7 0.0
26/07:00pm 9.5 8.5 5.7 77 1.8 CALM 0 0 0 0 1013.5 1013.6 0.0
26/06:30pm 11.6 9.9 5.7 67 2.8 NNE 4 7 2 4 1013.3 1013.4 0.0
26/06:00pm 13.3 12.1 4.5 55 4.1 CALM 0 0 0 0 1013.3 1013.4 0.0
26/05:30pm 14.4 12.3 5.7 56 4.2 SW 6 7 3 4 1013.2 1013.3 0.0
26/05:00pm 14.3 11.8 6.4 59 3.9 WSW 9 13 5 7 1013.1 1013.2 0.0
26/04:30pm 15.2 11.9 4.6 49 5.0 WSW 11 19 6 10 1013.1 1013.2 0.0
26/04:00pm 14.0 10.2 3.8 50 4.7 WSW 13 20 7 11 1013.1 1013.2 0.0
26/03:30pm 14.4 9.9 4.1 50 4.8 WSW 17 22 9 12 1013.0 1013.1 0.0
26/03:00pm 15.6 10.7 4.9 49 5.1 WNW 20 32 11 17 1013.0 1013.1 0.0
26/02:30pm 14.9 10.5 4.6 50 4.9 WSW 17 20 9 11 1013.2 1013.3 0.0
26/02:00pm 14.1 9.1 3.8 50 4.8 W 19 28 10 15 1013.3 1013.4 0.0
26/01:30pm 14.2 9.6 3.7 49 4.8 W 17 28 9 15 1013.6 1013.7 0.0
26/01:00pm 14.7 10.1 6.5 58 4.0 WNW 20 30 11 16 1013.9 1014.0 0.0
26/12:30pm 13.8 8.4 2.7 47 5.0 WSW 20 28 11 15 1014.1 1014.2 0.0
26/12:00pm 14.2 9.2 3.4 48 4.9 W 19 32 10 17 1014.3 1014.4 0.0
26/11:30am 13.9 8.7 3.4 49 4.8 WSW 20 30 11 16 1014.5 1014.6 0.0
26/11:00am 14.0 8.8 2.3 45 5.2 W 19 30 10 16 1014.7 1014.8 0.0
26/10:30am 14.0 9.8 5.9 58 3.9 SW 17 26 9 14 1015.1 1015.1 0.0
26/10:00am 13.7 10.2 5.3 57 4.0 W 13 17 7 9 1015.4 1015.4 0.0
26/09:30am 12.7 9.8 4.4 57 3.8 SW 9 15 5 8 1015.6 1015.6 0.0
26/09:00am 11.8 9.2 6.1 68 2.7 WSW 9 11 5 6 1015.6 1015.6 0.0
26/08:30am 9.9 8.0 6.8 81 1.5 W 6 9 3 5 1015.7 1015.7 0.0
26/08:00am 8.2 7.4 6.5 89 0.8 CALM 0 0 0 0 1015.6 1015.6 0.0
26/07:30am 6.5 5.3 6.4 99 0.0 WSW 2 7 1 4 1015.8 1015.8 0.0
26/07:00am 4.4 3.1 4.3 99 0.0 CALM 0 0 0 0 1015.8 1015.8 0.0
26/06:30am 2.2 0.5 2.1 99 0.0 CALM 0 0 0 0 1015.6 1015.6 0.0
26/06:00am 1.4 -0.4 1.3 99 0.0 CALM 0 0 0 0 1015.3 1015.3 0.0
26/05:30am 2.1 0.4 2.0 99 0.0 CALM 0 0 0 0 1015.0 1015.0 0.0
26/05:00am 2.3 0.7 2.2 99 0.0 CALM 0 0 0 0 1014.7 1014.8 0.0
26/04:30am 2.3 0.7 2.2 99 0.0 CALM 0 0 0 0 1014.5 1014.6 0.0
26/04:00am 2.2 0.5 2.1 99 0.0 CALM 0 0 0 0 1014.5 1014.6 0.0
26/03:30am 2.7 1.1 2.6 99 0.0 CALM 0 0 0 0 1014.4 1014.5 0.0
26/03:00am 2.6 1.0 2.5 99 0.0 CALM 0 0 0 0 1014.5 1014.6 0.0
26/02:30am 3.2 1.7 3.1 99 0.0 CALM 0 0 0 0 1014.5 1014.6 0.0
26/02:00am 3.1 1.6 2.8 98 0.1 CALM 0 0 0 0 1014.7 1014.8 0.0
26/01:30am 3.8 2.4 3.7 99 0.0 CALM 0 0 0 0 1014.9 1014.9 0.0
26/01:00am 4.2 2.9 4.1 99 0.0 CALM 0 0 0 0 1015.1 1015.1 0.0
26/12:30am 4.4 3.1 4.1 98 0.1 CALM 0 0 0 0 1015.1 1015.1 0.0
26/12:00am 4.6 3.4 4.5 99 0.0 CALM 0 0 0 0 1015.0 1015.0 0.0
 
Date/Time
EST
Temp
°C
App
Temp
°C
Dew
Point
°C
Rel
Hum
%
Delta-T
°C
Wind Press
QNH
hPa
Press
MSL
hPa
Rain since
9am
mm
Dir  Spd
km/h
Gust
km/h
Spd
kts
Gust
kts
25/11:30pm 4.7 3.5 4.4 98 0.1 CALM 0 0 0 0 1014.9 1014.9 0.0
25/11:00pm 4.6 3.2 3.7 94 0.4 CALM 0 0 0 0 1014.7 1014.8 0.0
25/10:30pm 5.3 4.1 4.4 94 0.4 CALM 0 0 0 0 1014.6 1014.7 0.0
25/10:00pm 5.8 3.8 4.6 92 0.5 SSW 4 6 2 3 1014.6 1014.7 0.0
25/09:30pm 6.9 5.1 5.4 90 0.7 SW 4 6 2 3 1014.3 1014.4 0.0
25/09:00pm 7.1 4.7 5.1 87 0.9 WSW 7 9 4 5 1014.1 1014.2 0.0
25/08:30pm 7.3 5.1 5.1 86 1.0 WSW 6 7 3 4 1013.9 1014.0 0.0
25/08:00pm 8.4 6.2 5.5 82 1.3 WSW 6 7 3 4 1013.4 1013.5 0.0
25/07:30pm 8.4 5.4 5.9 84 1.2 WSW 11 15 6 8 1013.2 1013.3 0.0
25/07:00pm 8.8 5.7 5.7 81 1.4 W 11 15 6 8 1012.6 1012.6 0.0
25/06:30pm 10.5 7.5 5.9 73 2.2 WSW 11 13 6 7 1012.0 1012.0 0.0
25/06:00pm 12.1 8.8 6.2 67 2.8 WSW 13 17 7 9 1011.7 1011.7 0.0
25/05:30pm 13.4 9.9 7.0 65 3.1 WSW 15 22 8 12 1011.4 1011.4 0.0
25/05:00pm 14.2 9.3 6.8 61 3.6 WSW 22 30 12 16 1011.2 1011.2 0.0
25/04:30pm 15.2 9.6 7.3 59 4.0 WSW 26 39 14 21 1010.9 1011.0 0.0
25/04:00pm 15.6 10.0 7.1 57 4.3 WSW 26 35 14 19 1010.8 1010.9 0.0
25/03:30pm 16.1 10.8 8.6 61 3.9 WSW 26 39 14 21 1010.5 1010.6 0.0
25/03:00pm 15.2 9.4 9.3 68 3.1 WSW 30 41 16 22 1010.5 1010.6 0.0
25/02:30pm 16.6 11.3 11.1 70 3.0 WSW 30 43 16 23 1010.2 1010.3 0.0
25/02:00pm 16.1 11.9 11.1 72 2.7 W 24 32 13 17 1010.2 1010.3 0.0
25/01:30pm 16.0 12.4 10.5 70 3.0 WSW 20 30 11 16 1010.1 1010.2 0.0
25/01:00pm 15.4 12.4 10.8 74 2.5 WSW 17 26 9 14 1010.1 1010.2 0.0
25/12:30pm 13.7 10.3 10.5 81 1.7 WSW 19 24 10 13 1010.2 1010.3 0.0
25/12:00pm 12.9 9.8 10.4 85 1.3 SW 17 28 9 15 1010.3 1010.4 0.0
25/11:30am 14.0 10.9 10.2 78 2.0 SW 17 26 9 14 1010.1 1010.2 0.0
25/11:00am 13.7 10.6 11.6 87 1.1 WSW 19 26 10 14 1010.1 1010.2 0.0
25/10:30am 12.6 8.4 11.0 90 0.9 WSW 24 35 13 19 1009.9 1010.0 0.0
25/10:00am 14.0 11.4 10.8 81 1.7 W 15 22 8 12 1009.8 1009.9 0.0
25/09:30am 13.7 12.8 11.4 86 1.2 W 7 11 4 6 1009.5 1009.5 0.0
25/09:00am 13.0 12.4 11.7 92 0.7 SW 6 9 3 5 1009.4 1009.4 0.6
25/08:30am 12.5 11.2 11.4 93 0.6 WSW 9 13 5 7 1009.4 1009.4 0.6
25/08:00am 12.3 11.5 11.0 92 0.7 WSW 6 7 3 4 1009.1 1009.1 0.6
25/07:30am 12.1 12.1 11.2 94 0.5 W 2 9 1 5 1008.9 1008.9 0.6
25/07:00am 11.6 10.6 11.0 96 0.3 SW 7 11 4 6 1008.7 1008.7 0.6
25/06:30am 11.2 10.1 10.6 96 0.3 WSW 7 9 4 5 1008.5 1008.5 0.6
25/06:00am 10.9 9.8 10.1 95 0.4 WSW 6 7 3 4 1008.2 1008.2 0.6
25/05:30am 11.1 10.1 10.2 94 0.5 NW 6 7 3 4 1008.1 1008.1 0.4
25/05:00am 11.2 9.9 10.1 93 0.6 NW 7 9 4 5 1008.0 1008.0 0.4
25/04:30am 11.3 9.0 10.5 95 0.4 NW 13 15 7 8 1008.0 1008.0 0.0
25/04:00am 11.4 11.2 10.3 93 0.6 N 2 9 1 5 1007.6 1007.6 0.0
25/03:30am 11.8 10.7 9.9 88 1.0 SSE 6 7 3 4 1007.5 1007.5 0.0
25/03:00am 12.4 11.1 9.8 84 1.4 SE 7 11 4 6 1007.5 1007.5 0.0
25/02:30am 12.6 10.8 9.6 82 1.5 SE 9 13 5 7 1007.6 1007.6 0.0
25/02:00am 12.0 10.7 9.9 87 1.1 SSE 7 9 4 5 1008.0 1008.0 0.0
25/01:30am 12.0 10.0 10.2 89 0.9 SSW 11 17 6 9 1008.2 1008.2 0.0
25/01:00am 11.6 11.9 10.8 95 0.4 CALM 0 0 0 0 1008.2 1008.2 0.0
25/12:30am 12.0 12.2 10.6 91 0.7 CALM 0 0 0 0 1008.3 1008.3 0.0
25/12:00am 12.1 12.4 11.0 93 0.6 CALM 0 0 0 0 1008.4 1008.4 0.0
 
Date/Time
EST
Temp
°C
App
Temp
°C
Dew
Point
°C
Rel
Hum
%
Delta-T
°C
Wind Press
QNH
hPa
Press
MSL
hPa
Rain since
9am
mm
Dir  Spd
km/h
Gust
km/h
Spd
kts
Gust
kts
24/11:30pm 12.1 12.5 11.2 94 0.5 CALM 0 0 0 0 1008.6 1008.6 0.0
24/11:00pm 11.9 12.2 10.8 93 0.6 CALM 0 0 0 0 1008.8 1008.8 0.0
24/10:30pm 12.2 12.4 10.4 89 0.9 CALM 0 0 0 0 1008.9 1008.9 0.0
24/10:00pm 12.1 12.3 10.5 90 0.8 CALM 0 0 0 0 1009.0 1009.0 0.0
24/09:30pm 12.4 12.7 10.8 90 0.8 CALM 0 0 0 0 1009.1 1009.1 0.0
24/09:00pm 12.4 12.7 10.8 90 0.8 CALM 0 0 0 0 1009.3 1009.3 0.0
24/08:30pm 12.2 12.3 10.1 87 1.1 CALM 0 0 0 0 1009.3 1009.3 0.0
24/08:00pm 12.8 12.6 9.1 78 1.9 CALM 0 0 0 0 1009.0 1009.0 0.0
24/07:30pm 13.4 13.4 9.8 79 1.9 CALM 0 0 0 0 1008.9 1008.9 0.0
24/07:00pm 13.1 13.0 9.4 78 1.9 CALM 0 6 0 3 1008.9 1008.9 0.0
24/06:30pm 13.5 12.3 9.4 76 2.1 W 6 7 3 4 1009.1 1009.1 0.0
24/06:00pm 14.3 12.6 8.5 68 3.0 SW 7 9 4 5 1008.8 1008.8 0.0
24/05:30pm 14.9 12.4 8.4 65 3.3 W 11 17 6 9 1009.3 1009.3 0.0
24/05:00pm 16.1 12.9 8.3 60 4.0 WNW 15 20 8 11 1009.5 1009.5 0.0
24/04:30pm 16.4 12.7 9.3 63 3.7 NW 19 24 10 13 1009.2 1009.2 0.0
24/04:00pm 17.6 14.1 8.7 56 4.7 NNW 17 26 9 14 1008.7 1008.7 0.0
24/03:30pm 19.0 16.8 10.8 59 4.5 NNW 13 15 7 8 1008.7 1008.7 0.0

Other Formats:

Comma delimited format used in spreadsheet applications
http://www.bom.gov.au/fwo/IDN60801/IDN60801.95722.axf

JavaScript Object Notation format (JSON) in row-major order
http://www.bom.gov.au/fwo/IDN60801/IDN60801.95722.json